Time;durP1;ratioP1;P1;durP2;ratioP2;P2;SDS_P1;SDS_P2;PMS_P1;PMS_P2;Temp;Humidity;BMP_temperature;BMP_pressure;BME280_temperature;BME280_humidity;BME280_pressure;Samples;Min_cycle;Max_cycle;Signal;HPM_P1;HPM_P2
2022/07/19 00:01:23;;;;;;;;;7.50;7.00;;;;;30.27;27.19;101123.84;4871092;29;45378;-66
2022/07/19 00:03:49;;;;;;;;;5.50;5.50;;;;;30.23;27.24;101119.72;4871292;29;45236;-67
2022/07/19 00:06:14;;;;;;;;;6.75;6.75;;;;;30.22;27.54;101112.47;4871136;29;45380;-66
2022/07/19 00:08:39;;;;;;;;;7.50;6.00;;;;;30.21;26.84;101124.53;4877308;29;45437;-66
2022/07/19 00:11:05;;;;;;;;;6.50;5.25;;;;;30.19;26.60;101116.44;4877915;29;45364;-66
2022/07/19 00:13:30;;;;;;;;;4.50;4.50;;;;;30.12;27.46;101107.13;4889522;29;45544;-66
2022/07/19 00:15:56;;;;;;;;;4.00;4.00;;;;;30.20;26.14;101112.66;4872985;29;45305;-66
2022/07/19 00:18:21;;;;;;;;;4.75;4.75;;;;;30.22;26.32;101110.59;4871058;29;46336;-66
2022/07/19 00:20:47;;;;;;;;;8.75;6.50;;;;;30.25;27.45;101114.91;4880634;29;45245;-66
2022/07/19 00:23:12;;;;;;;;;6.00;4.00;;;;;30.22;26.20;101116.13;4876492;29;45598;-67
2022/07/19 00:25:37;;;;;;;;;5.25;5.25;;;;;30.25;27.07;101114.91;4870534;29;45229;-66
2022/07/19 00:28:03;;;;;;;;;6.00;4.00;;;;;30.22;27.28;101109.72;4867042;29;46048;-66
2022/07/19 00:30:28;;;;;;;;;4.75;4.00;;;;;30.17;27.12;101102.00;4867857;29;45450;-66
2022/07/19 00:32:54;;;;;;;;;6.75;5.25;;;;;30.19;27.37;101110.94;4879850;29;45251;-66
2022/07/19 00:35:19;;;;;;;;;5.00;5.00;;;;;30.14;27.40;101105.09;4869525;29;45237;-66
2022/07/19 00:37:45;;;;;;;;;5.50;4.00;;;;;30.10;26.83;101104.56;4867839;29;46061;-66
2022/07/19 00:40:11;;;;;;;;;4.00;4.00;;;;;30.10;26.44;101106.44;4877892;29;45339;-67
2022/07/19 00:42:38;;;;;;;;;6.00;5.00;;;;;30.09;26.39;101108.34;4894336;28;45307;-66
2022/07/19 00:45:04;;;;;;;;;5.00;4.75;;;;;30.10;26.58;101111.94;4898146;29;45704;-66
2022/07/19 00:47:29;;;;;;;;;5.75;5.00;;;;;30.09;26.76;101104.75;4877109;29;46146;-66
2022/07/19 00:49:55;;;;;;;;;2.25;2.25;;;;;30.05;26.67;101106.94;4867394;29;45325;-66
2022/07/19 00:52:22;;;;;;;;;4.00;4.00;;;;;30.07;27.04;101106.78;4867923;29;45249;-66
2022/07/19 00:54:52;;;;;;;;;5.50;4.50;;;;;30.05;27.05;101103.34;4867450;29;45341;-66
2022/07/19 00:57:18;;;;;;;;;4.50;3.75;;;;;30.02;26.89;101096.28;4869892;29;45428;-66
2022/07/19 00:59:45;;;;;;;;;4.75;4.75;;;;;29.98;26.82;101094.03;4867337;29;45459;-66
2022/07/19 01:02:12;;;;;;;;;7.50;4.25;;;;;30.00;27.37;101094.72;4867605;29;45337;-66
2022/07/19 01:04:38;;;;;;;;;0.50;0.50;;;;;29.98;27.12;101092.13;4867116;29;45246;-66
2022/07/19 01:07:03;;;;;;;;;4.75;4.75;;;;;29.96;27.21;101096.97;4867287;29;46224;-66
2022/07/19 01:09:29;;;;;;;;;6.00;4.00;;;;;29.94;27.56;101090.78;4871729;29;45459;-66
2022/07/19 01:11:56;;;;;;;;;5.00;5.00;;;;;29.90;27.93;101093.00;4878854;29;45371;-66
2022/07/19 01:14:22;;;;;;;;;7.50;4.50;;;;;29.86;28.02;101088.84;4881198;29;45307;-66
2022/07/19 01:16:48;;;;;;;;;5.00;5.00;;;;;29.84;27.73;101090.91;4867225;29;46330;-66
2022/07/19 01:19:13;;;;;;;;;5.00;5.00;;;;;29.80;27.68;101084.00;4866936;29;45330;-66
2022/07/19 01:21:40;;;;;;;;;5.25;4.25;;;;;29.78;28.05;101086.06;4868371;29;45865;-66
2022/07/19 01:24:05;;;;;;;;;5.00;5.00;;;;;29.74;28.28;101084.66;4867070;29;45324;-66
2022/07/19 01:26:31;;;;;;;;;6.50;4.50;;;;;29.71;28.47;101082.25;4867143;29;45414;-66
2022/07/19 01:28:56;;;;;;;;;7.75;7.50;;;;;29.66;27.96;101082.72;4865673;29;45238;-66
2022/07/19 01:31:21;;;;;;;;;5.00;4.25;;;;;29.62;28.36;101084.09;4867285;29;45288;-66
2022/07/19 01:33:47;;;;;;;;;5.75;4.50;;;;;29.60;28.16;101077.03;4880285;29;45594;-66
2022/07/19 01:36:12;;;;;;;;;5.00;4.00;;;;;29.58;28.07;101076.34;4868827;29;46005;-66
2022/07/19 01:38:39;;;;;;;;;6.25;6.00;;;;;29.56;28.98;101079.25;4867765;29;45225;-66
2022/07/19 01:41:06;;;;;;;;;6.25;4.50;;;;;29.51;28.33;101085.25;4882684;29;45438;-66
2022/07/19 01:43:31;;;;;;;;;4.25;4.25;;;;;29.48;28.96;101085.56;4888878;29;45488;-66
2022/07/19 01:45:57;;;;;;;;;5.75;5.75;;;;;29.44;28.94;101086.94;4894496;28;45967;-66
2022/07/19 01:48:23;;;;;;;;;6.25;5.50;;;;;29.40;28.50;101074.53;4869255;29;45294;-66
2022/07/19 01:50:48;;;;;;;;;6.75;5.25;;;;;29.35;29.18;101076.91;4867764;29;45412;-66
2022/07/19 01:53:14;;;;;;;;;4.00;4.00;;;;;29.28;28.81;101071.22;4868702;29;45304;-66
2022/07/19 01:55:39;;;;;;;;;7.25;5.25;;;;;29.25;28.19;101071.53;4866776;29;46092;-66
2022/07/19 01:58:05;;;;;;;;;5.25;5.00;;;;;29.26;28.91;101080.69;4866232;29;45352;-66
2022/07/19 02:00:31;;;;;;;;;4.00;4.00;;;;;29.17;28.15;101064.13;4866927;29;45297;-66
2022/07/19 02:02:56;;;;;;;;;5.75;5.00;;;;;29.26;28.29;101080.69;4895518;29;45234;-66
2022/07/19 02:05:21;;;;;;;;;3.75;3.50;;;;;29.25;28.12;101073.44;4874764;29;45980;-66
2022/07/19 02:07:47;;;;;;;;;4.25;4.25;;;;;29.26;27.97;101078.78;4868074;29;45211;-66
2022/07/19 02:10:13;;;;;;;;;5.75;4.25;;;;;29.23;28.77;101073.59;4866663;29;45415;-66
2022/07/19 02:12:38;;;;;;;;;4.75;4.50;;;;;29.23;28.90;101075.50;4883465;29;45234;-66
2022/07/19 02:15:05;;;;;;;;;4.00;4.00;;;;;29.21;28.66;101075.66;4874703;29;45266;-66
2022/07/19 02:17:30;;;;;;;;;4.75;4.00;;;;;29.16;28.78;101075.25;4866194;29;45483;-66
2022/07/19 02:19:55;;;;;;;;;5.00;5.00;;;;;29.10;28.55;101071.28;4869042;29;45253;-66
2022/07/19 02:22:21;;;;;;;;;6.50;5.00;;;;;29.05;28.04;101059.03;4866963;29;45657;-66
2022/07/19 02:24:47;;;;;;;;;6.00;5.25;;;;;29.06;28.21;101061.63;4866231;29;46113;-66
2022/07/19 02:27:12;;;;;;;;;6.00;4.25;;;;;29.08;28.97;101056.81;4866035;29;45282;-66
2022/07/19 02:29:38;;;;;;;;;4.00;4.00;;;;;29.08;28.52;101055.97;4866249;29;45331;-66
2022/07/19 02:32:04;;;;;;;;;4.50;4.00;;;;;29.06;28.06;101047.03;4870840;29;45417;-66
2022/07/19 02:34:30;;;;;;;;;7.00;4.00;;;;;29.06;28.29;101049.78;4873656;29;46206;-66
2022/07/19 02:36:55;;;;;;;;;7.50;5.75;;;;;29.05;27.98;101045.31;4866513;29;45383;-66
2022/07/19 02:39:21;;;;;;;;;5.25;4.75;;;;;29.05;28.30;101050.81;4873161;29;45469;-66
2022/07/19 02:41:46;;;;;;;;;6.75;5.50;;;;;29.07;28.68;101052.38;4884971;29;45311;-66
2022/07/19 02:44:11;;;;;;;;;3.50;3.50;;;;;29.06;28.60;101041.53;4893020;29;45331;-66
2022/07/19 02:46:38;;;;;;;;;6.00;6.00;;;;;29.08;28.42;101053.22;4886342;29;45160;-66
2022/07/19 02:49:03;;;;;;;;;4.50;4.50;;;;;29.07;28.23;101051.50;4865720;29;45222;-66
2022/07/19 02:51:28;;;;;;;;;6.25;5.50;;;;;29.06;28.92;101049.78;4865536;29;45248;-66
2022/07/19 02:53:53;;;;;;;;;5.75;5.00;;;;;29.02;29.01;101047.34;4871510;29;45182;-66
2022/07/19 02:56:19;;;;;;;;;3.75;3.75;;;;;28.96;28.73;101037.00;4869263;29;46239;-66
2022/07/19 02:58:44;;;;;;;;;4.00;4.00;;;;;28.98;28.75;101034.97;4866121;29;45247;-66
2022/07/19 03:01:09;;;;;;;;;4.50;4.50;;;;;28.96;28.52;101041.66;4865589;29;45233;-66
2022/07/19 03:03:44;;;;;;;;;4.25;4.25;;;;;28.94;28.54;101041.81;4865643;29;46372;-66
2022/07/19 03:06:11;;;;;;;;;3.25;3.25;;;;;28.92;29.12;101037.50;4865695;29;45233;-67
2022/07/19 03:08:36;;;;;;;;;6.50;5.75;;;;;28.87;29.02;101039.88;4871450;29;45440;-66
2022/07/19 03:11:02;;;;;;;;;4.50;3.75;;;;;28.85;29.01;101039.19;4874574;29;45450;-66
2022/07/19 03:13:27;;;;;;;;;5.50;4.75;;;;;28.80;29.23;101029.56;4892535;29;45593;-66
2022/07/19 03:15:53;;;;;;;;;6.75;6.00;;;;;28.76;29.40;101028.13;4872898;29;45449;-67
2022/07/19 03:18:18;;;;;;;;;7.00;6.00;;;;;28.78;28.81;101033.47;4865525;29;45462;-65
2022/07/19 03:20:44;;;;;;;;;6.75;5.75;;;;;28.72;29.39;101029.50;4865306;29;45356;-65
2022/07/19 03:23:09;;;;;;;;;6.50;6.00;;;;;28.74;29.33;101034.81;4865628;29;45305;-65
2022/07/19 03:25:34;;;;;;;;;4.75;4.75;;;;;28.70;28.94;101031.53;4870926;29;45450;-65
2022/07/19 03:28:00;;;;;;;;;5.75;5.25;;;;;28.72;29.68;101045.09;4865578;29;45369;-65
2022/07/19 03:30:25;;;;;;;;;6.00;6.00;;;;;28.67;29.04;101040.09;4865443;29;45370;-65
2022/07/19 03:32:51;;;;;;;;;5.75;5.75;;;;;28.58;29.82;101022.69;4877359;29;46314;-65
2022/07/19 03:35:17;;;;;;;;;4.00;4.00;;;;;28.66;29.84;101037.50;4867867;29;45291;-65
2022/07/19 03:37:42;;;;;;;;;5.00;3.75;;;;;28.64;29.44;101043.16;4876277;29;45576;-65
2022/07/19 03:40:08;;;;;;;;;7.75;6.50;;;;;28.61;29.79;101052.56;4875780;29;45362;-65
2022/07/19 03:42:34;;;;;;;;;6.00;5.00;;;;;28.58;29.65;101052.03;4894268;28;45408;-66
2022/07/19 03:44:59;;;;;;;;;5.75;5.75;;;;;28.55;30.00;101042.22;4895591;29;53793;-65
2022/07/19 03:47:24;;;;;;;;;5.50;4.50;;;;;28.51;29.39;101043.53;4875667;29;45302;-65
2022/07/19 03:49:49;;;;;;;;;6.25;4.75;;;;;28.49;30.41;101047.50;4865033;29;45285;-65
2022/07/19 03:52:15;;;;;;;;;4.75;4.75;;;;;28.43;29.91;101036.13;4864888;29;51257;-65
2022/07/19 03:54:40;;;;;;;;;7.75;6.75;;;;;28.42;30.05;101036.28;4865700;29;45366;-65
2022/07/19 03:57:06;;;;;;;;;6.25;6.25;;;;;28.33;29.78;101029.84;4865338;29;45688;-65
2022/07/19 03:59:31;;;;;;;;;5.50;5.50;;;;;28.32;30.41;101030.88;4864601;29;53289;-65
2022/07/19 04:01:56;;;;;;;;;7.00;5.75;;;;;28.33;29.95;101038.06;4865574;29;60168;-65
2022/07/19 04:04:22;;;;;;;;;6.50;6.00;;;;;28.30;30.58;101038.41;4867957;29;45365;-65
2022/07/19 04:06:47;;;;;;;;;6.50;6.25;;;;;28.28;30.35;101037.69;4871049;29;52378;-65
2022/07/19 04:09:12;;;;;;;;;8.00;7.25;;;;;28.23;30.42;101040.94;4884445;29;45307;-65
2022/07/19 04:11:38;;;;;;;;;5.50;4.00;;;;;28.17;30.86;101040.69;4886822;29;46020;-65
2022/07/19 04:14:03;;;;;;;;;6.50;5.50;;;;;28.19;30.49;101039.50;4879515;29;45367;-65
2022/07/19 04:16:29;;;;;;;;;9.00;7.50;;;;;28.14;30.57;101030.88;4868237;29;45279;-65
2022/07/19 04:18:54;;;;;;;;;8.00;8.00;;;;;28.13;30.58;101033.78;4867943;29;45385;-65
2022/07/19 04:21:19;;;;;;;;;6.50;6.00;;;;;28.11;31.10;101044.06;4867912;29;46185;-65
2022/07/19 04:23:44;;;;;;;;;6.25;5.50;;;;;28.12;30.60;101040.28;4868007;29;45380;-65
2022/07/19 04:26:10;;;;;;;;;7.50;7.00;;;;;28.06;30.47;101037.16;4867964;29;45336;-65
2022/07/19 04:28:35;;;;;;;;;7.00;6.00;;;;;28.06;31.12;101039.91;4872613;29;45303;-65
2022/07/19 04:31:00;;;;;;;;;5.00;5.00;;;;;28.04;30.97;101039.19;4894960;29;46268;-65
2022/07/19 04:33:26;;;;;;;;;7.00;6.00;;;;;28.02;31.16;101037.66;4884382;29;45354;-65
2022/07/19 04:35:53;;;;;;;;;9.50;7.50;;;;;27.98;31.56;101030.72;4871827;29;45497;-65
2022/07/19 04:38:19;;;;;;;;;6.75;6.75;;;;;27.98;31.69;101034.31;4885425;29;46871;-65
2022/07/19 04:40:45;;;;;;;;;5.50;5.50;;;;;27.95;31.65;101034.66;4885988;29;47176;-65
2022/07/19 04:43:10;;;;;;;;;8.00;7.00;;;;;27.93;31.74;101033.94;4886228;29;45366;-65
2022/07/19 04:45:35;;;;;;;;;7.00;7.00;;;;;27.90;31.50;101023.28;4898089;28;45311;-65
2022/07/19 04:48:01;;;;;;;;;6.00;6.00;;;;;27.90;31.74;101036.97;4885243;29;45168;-65
2022/07/19 04:50:26;;;;;;;;;7.50;7.25;;;;;27.85;31.88;101022.84;4881285;29;46067;-65
2022/07/19 04:52:51;;;;;;;;;0.75;0.75;;;;;27.83;31.88;101030.38;4881552;29;45398;-65
2022/07/19 04:55:17;;;;;;;;;5.75;5.75;;;;;27.83;32.01;101033.13;4888981;29;45420;-65
2022/07/19 04:57:42;;;;;;;;;9.25;9.00;;;;;27.81;31.54;101032.41;4884870;29;45415;-65
2022/07/19 05:00:10;;;;;;;;;9.00;7.25;;;;;27.80;31.83;101036.16;4875141;29;46027;-65
2022/07/19 05:02:36;;;;;;;;;7.00;7.00;;;;;27.77;31.85;101028.28;4879531;29;45391;-65
2022/07/19 05:05:02;;;;;;;;;7.75;7.75;;;;;27.77;32.16;101025.53;4872827;29;45422;-65
2022/07/19 05:07:28;;;;;;;;;6.75;6.50;;;;;27.79;31.97;101020.75;4879567;29;45434;-65
2022/07/19 05:09:53;;;;;;;;;10.00;8.00;;;;;27.75;32.37;101024.78;4878552;29;47021;-65
2022/07/19 05:12:18;;;;;;;;;9.50;7.00;;;;;27.78;31.91;101024.50;4882768;29;45432;-65
2022/07/19 05:14:43;;;;;;;;;7.00;6.75;;;;;27.68;32.43;101013.59;4890218;29;45502;-65
2022/07/19 05:17:09;;;;;;;;;8.25;7.50;;;;;27.69;31.65;101016.19;4880373;29;45284;-64
2022/07/19 05:19:34;;;;;;;;;10.00;7.50;;;;;27.71;31.66;101025.09;4884038;29;46444;-64
2022/07/19 05:22:00;;;;;;;;;8.50;8.50;;;;;27.69;31.53;101024.41;4871877;29;45300;-65
2022/07/19 05:24:25;;;;;;;;;7.25;7.25;;;;;27.68;31.55;101021.81;4874283;29;47452;-65
2022/07/19 05:26:50;;;;;;;;;14.00;8.75;;;;;27.67;31.95;101022.84;4883181;29;45422;-65
2022/07/19 05:29:16;;;;;;;;;9.25;8.00;;;;;27.68;31.87;101030.03;4885527;29;46162;-65
2022/07/19 05:31:41;;;;;;;;;8.00;8.00;;;;;27.68;31.53;101025.44;4885777;29;45628;-65
2022/07/19 05:34:06;;;;;;;;;68.75;55.25;;;;;27.69;31.45;101024.41;4884592;29;45580;-65
2022/07/19 05:36:31;;;;;;;;;42.00;35.75;;;;;27.69;31.67;101026.28;4882775;29;50243;-65
2022/07/19 05:38:57;;;;;;;;;15.50;14.75;;;;;27.69;31.98;101024.41;4884282;29;46258;-65
2022/07/19 05:41:23;;;;;;;;;10.50;9.50;;;;;27.71;32.06;101024.25;4885332;29;45667;-65
2022/07/19 05:43:49;;;;;;;;;9.50;7.75;;;;;27.67;31.95;101018.22;4886629;29;45664;-65
2022/07/19 05:46:16;;;;;;;;;10.00;9.00;;;;;27.67;31.70;101015.47;4885203;29;45408;-65
2022/07/19 05:48:42;;;;;;;;;9.75;8.75;;;;;27.68;31.85;101014.47;4882045;29;46200;-65
2022/07/19 05:51:07;;;;;;;;;8.50;8.50;;;;;27.67;31.71;101018.22;4884317;29;45406;-65
2022/07/19 05:53:35;;;;;;;;;8.75;7.75;;;;;27.66;32.04;101008.25;4884055;29;45357;-65
2022/07/19 05:56:01;;;;;;;;;8.50;8.50;;;;;27.70;31.91;101017.06;4880410;29;45605;-65
2022/07/19 05:58:27;;;;;;;;;10.50;8.75;;;;;27.61;31.78;101002.38;4867589;29;46114;-65
2022/07/19 06:03:36;;;;;;;;;11.25;9.75;;;;;27.69;31.74;101004.34;4882919;29;45817;-65
2022/07/19 06:06:02;;;;;;;;;9.00;9.00;;;;;27.71;32.13;101005.91;4872803;29;45470;-65
2022/07/19 06:08:27;;;;;;;;;9.75;9.75;;;;;27.71;31.86;101000.41;4866335;29;45331;-65
2022/07/19 06:10:53;;;;;;;;;7.75;7.25;;;;;27.73;31.75;101006.63;4872399;29;45431;-65
2022/07/19 06:13:18;;;;;;;;;11.50;9.75;;;;;27.75;32.00;101001.00;4878825;29;45325;-65
2022/07/19 06:15:44;;;;;;;;;10.25;7.50;;;;;27.77;31.71;100996.22;4866294;29;45373;-65
2022/07/19 06:18:09;;;;;;;;;10.75;9.50;;;;;27.80;32.09;101000.50;4866077;29;45361;-65
2022/07/19 06:20:34;;;;;;;;;11.25;9.75;;;;;27.83;31.81;100994.72;4866045;29;48316;-65
2022/07/19 06:23:00;;;;;;;;;14.75;10.00;;;;;27.77;32.22;100973.41;4866255;29;45191;-65
2022/07/19 06:25:25;;;;;;;;;12.25;11.00;;;;;27.89;31.84;100994.94;4865583;29;45466;-65
2022/07/19 06:27:51;;;;;;;;;9.00;9.00;;;;;27.92;31.80;100985.56;4878760;29;45308;-65
2022/07/19 06:30:16;;;;;;;;;9.50;8.50;;;;;27.91;31.90;100981.94;4891334;29;45323;-66
2022/07/19 06:32:41;;;;;;;;;9.75;7.75;;;;;27.90;31.87;100973.88;4879472;29;45276;-65
2022/07/19 06:35:07;;;;;;;;;14.00;12.00;;;;;27.97;31.94;100980.50;4878653;29;47345;-65
2022/07/19 06:37:32;;;;;;;;;11.00;8.50;;;;;27.97;32.00;100972.25;4872294;29;47290;-65
2022/07/19 06:39:58;;;;;;;;;7.75;7.75;;;;;28.01;32.14;100976.41;4877021;29;45492;-65
2022/07/19 06:42:23;;;;;;;;;10.50;10.00;;;;;28.07;32.71;100974.94;4896529;28;45256;-65
2022/07/19 06:44:48;;;;;;;;;12.00;12.00;;;;;28.12;32.18;100963.44;4886385;29;46700;-65
2022/07/19 06:47:14;;;;;;;;;13.00;11.00;;;;;28.15;31.90;100961.28;4865938;29;46219;-67
2022/07/19 06:49:39;;;;;;;;;8.00;8.00;;;;;28.19;32.01;100957.19;4865706;29;45282;-67
2022/07/19 06:52:05;;;;;;;;;11.50;10.25;;;;;28.20;31.70;100949.78;4866115;29;45551;-66
2022/07/19 06:54:30;;;;;;;;;12.00;12.00;;;;;28.23;31.58;100954.97;4865744;29;45150;-66
2022/07/19 06:56:56;;;;;;;;;11.75;9.25;;;;;28.31;31.68;100959.66;4865663;29;46692;-66
2022/07/19 06:59:21;;;;;;;;;7.50;7.50;;;;;28.34;31.81;100960.19;4870165;29;45252;-67
2022/07/19 07:01:46;;;;;;;;;12.00;10.75;;;;;28.35;31.82;100961.94;4866848;29;45308;-66
2022/07/19 07:04:11;;;;;;;;;12.00;11.00;;;;;28.41;32.17;100964.00;4883372;29;45565;-67
2022/07/19 07:06:37;;;;;;;;;11.75;11.75;;;;;28.49;31.85;100970.59;4865502;29;45375;-66
2022/07/19 07:09:03;;;;;;;;;10.25;9.75;;;;;28.53;31.98;100970.09;4865630;29;45334;-66
2022/07/19 07:11:28;;;;;;;;;11.00;9.75;;;;;28.54;31.92;100963.59;4874732;29;45449;-67
2022/07/19 07:13:54;;;;;;;;;12.00;11.75;;;;;28.53;32.20;100958.25;4867992;29;45672;-67
2022/07/19 07:16:19;;;;;;;;;11.75;11.75;;;;;28.63;32.04;100962.69;4865429;29;52589;-66
2022/07/19 07:18:45;;;;;;;;;12.75;10.75;;;;;28.64;32.34;100952.53;4865207;29;45317;-66
2022/07/19 07:21:10;;;;;;;;;12.00;11.75;;;;;28.71;32.32;100961.84;4865760;29;45315;-66
2022/07/19 07:23:35;;;;;;;;;13.00;11.00;;;;;28.76;31.99;100953.97;4865453;29;45317;-67
2022/07/19 07:26:01;;;;;;;;;14.75;12.75;;;;;28.80;31.89;100954.50;4865474;29;45998;-67
2022/07/19 07:28:26;;;;;;;;;10.50;10.50;;;;;28.86;31.22;100958.50;4874852;29;45370;-66
2022/07/19 07:30:52;;;;;;;;;11.50;8.25;;;;;28.90;32.21;100947.03;4876681;29;45327;-66
2022/07/19 07:33:17;;;;;;;;;13.25;10.50;;;;;28.96;31.97;100948.22;4877545;29;45221;-67
2022/07/19 07:35:42;;;;;;;;;11.50;9.50;;;;;29.01;32.27;100945.84;4866107;29;46924;-66
2022/07/19 07:38:08;;;;;;;;;12.75;11.25;;;;;29.05;31.69;100949.97;4868570;29;45374;-67
2022/07/19 07:40:33;;;;;;;;;11.75;10.00;;;;;29.11;31.12;100942.97;4879638;29;45414;-67
2022/07/19 07:42:58;;;;;;;;;16.00;12.50;;;;;29.14;30.97;100943.50;4880570;28;45161;-67
2022/07/19 07:45:24;;;;;;;;;15.50;9.50;;;;;29.22;31.20;100944.56;4897972;29;45176;-67
2022/07/19 07:47:49;;;;;;;;;11.25;10.25;;;;;29.24;31.55;100935.16;4875513;29;45454;-67
2022/07/19 07:50:15;;;;;;;;;12.00;10.25;;;;;29.33;31.13;100938.78;4868413;29;45487;-67
2022/07/19 07:52:40;;;;;;;;;9.25;9.25;;;;;29.38;30.65;100931.72;4868446;29;45354;-66
2022/07/19 07:55:06;;;;;;;;;9.25;8.25;;;;;29.42;30.57;100920.41;4868185;29;45233;-66
2022/07/19 07:57:31;;;;;;;;;11.75;10.50;;;;;29.53;31.21;100926.44;4878178;29;45246;-66
2022/07/19 07:59:57;;;;;;;;;9.25;9.00;;;;;29.61;31.31;100924.75;4886486;29;45411;-66
2022/07/19 08:02:22;;;;;;;;;11.25;11.25;;;;;29.67;30.79;100924.91;4887130;29;45525;-66
2022/07/19 08:04:47;;;;;;;;;14.75;12.00;;;;;29.75;31.16;100916.69;4868113;29;46028;-67
2022/07/19 08:07:13;;;;;;;;;10.25;9.75;;;;;29.83;31.14;100912.22;4868341;29;45313;-66
2022/07/19 08:09:38;;;;;;;;;11.00;10.00;;;;;29.91;31.67;100903.97;4868382;29;45306;-66
2022/07/19 08:12:04;;;;;;;;;12.00;10.75;;;;;29.98;30.47;100907.75;4871879;29;45446;-66
2022/07/19 08:14:29;;;;;;;;;13.50;13.50;;;;;30.05;30.57;100906.00;4867985;29;46147;-66
2022/07/19 08:16:54;;;;;;;;;13.00;13.00;;;;;30.13;30.65;100901.56;4892673;29;45350;-67
2022/07/19 08:19:20;;;;;;;;;11.50;10.75;;;;;30.17;30.89;100894.66;4880632;29;45320;-67
2022/07/19 08:21:45;;;;;;;;;17.00;13.25;;;;;30.27;30.17;100901.72;4868066;29;45511;-67
2022/07/19 08:24:10;;;;;;;;;12.00;12.00;;;;;30.35;30.75;100908.22;4899241;29;46646;-67
2022/07/19 08:26:36;;;;;;;;;9.50;8.25;;;;;30.42;30.53;100901.88;4881770;29;45224;-66
2022/07/19 08:29:01;;;;;;;;;13.50;11.00;;;;;30.50;30.33;100897.38;4880407;29;45350;-66
2022/07/19 08:31:26;;;;;;;;;13.25;11.75;;;;;30.58;30.50;100892.69;4874223;29;45489;-66
2022/07/19 08:33:52;;;;;;;;;13.50;13.50;;;;;30.63;30.79;100890.25;4898390;29;52466;-67
2022/07/19 08:36:17;;;;;;;;;16.50;13.25;;;;;30.74;31.05;100893.66;4874043;29;45265;-67
2022/07/19 08:38:42;;;;;;;;;12.50;11.50;;;;;30.72;30.36;100876.47;4867880;29;45213;-67
2022/07/19 08:41:08;;;;;;;;;12.00;11.50;;;;;30.87;30.33;100890.34;4880064;29;45247;-67
2022/07/19 08:43:34;;;;;;;;;14.50;12.75;;;;;30.92;30.15;100885.16;4876503;29;46067;-66
2022/07/19 08:46:01;;;;;;;;;12.00;11.50;;;;;30.97;29.90;100883.63;4895284;28;45217;-67
2022/07/19 08:48:29;;;;;;;;;14.25;13.50;;;;;31.01;30.33;100879.44;4868979;29;45320;-66
2022/07/19 08:50:56;;;;;;;;;11.75;11.75;;;;;31.09;29.81;100874.94;4867705;29;45492;-67
2022/07/19 08:53:23;;;;;;;;;10.25;10.25;;;;;31.16;29.19;100876.78;4867461;29;46401;-67
2022/07/19 08:55:49;;;;;;;;;12.00;10.00;;;;;31.24;28.91;100863.97;4872978;29;45350;-67
2022/07/19 08:58:15;;;;;;;;;9.25;9.25;;;;;31.33;28.97;100869.25;4873313;29;45394;-67
2022/07/19 09:00:40;;;;;;;;;10.25;10.25;;;;;31.42;29.22;100858.16;4874853;29;45432;-67
2022/07/19 09:03:06;;;;;;;;;9.75;9.75;;;;;31.47;29.27;100861.22;4867182;29;46076;-66
2022/07/19 09:05:33;;;;;;;;;8.50;8.50;;;;;31.56;28.54;100855.50;4867613;29;45489;-66
2022/07/19 09:08:06;;;;;;;;;12.50;11.00;;;;;31.64;28.41;100857.31;4874987;29;45437;-67
2022/07/19 09:10:33;;;;;;;;;11.00;9.75;;;;;31.75;28.54;100856.88;4874617;29;45425;-67
2022/07/19 09:13:03;;;;;;;;;11.75;10.00;;;;;31.86;27.26;100849.19;4876905;29;46430;-67
2022/07/19 09:15:45;;;;;;;;;15.25;12.00;;;;;31.98;28.16;100853.25;4867218;29;45227;-66
2022/07/19 09:18:21;;;;;;;;;10.50;10.25;;;;;32.05;27.64;100848.66;4867135;29;45407;-67
2022/07/19 09:20:49;;;;;;;;;11.25;11.25;;;;;32.05;27.33;100828.50;4867251;29;45568;-66
2022/07/19 09:23:15;;;;;;;;;10.00;10.00;;;;;32.18;27.66;100838.91;4867158;29;45419;-66
2022/07/19 09:25:48;;;;;;;;;9.00;9.00;;;;;32.25;26.79;100837.97;4867165;29;45458;-66
2022/07/19 09:28:14;;;;;;;;;9.75;9.75;;;;;32.24;26.67;100827.94;4867160;29;45176;-66
2022/07/19 09:30:43;;;;;;;;;9.00;8.75;;;;;32.38;26.79;100842.81;4868237;29;45165;-66
2022/07/19 09:33:27;;;;;;;;;12.25;11.00;;;;;32.45;26.73;100835.47;4879372;29;46050;-66
2022/07/19 09:35:56;;;;;;;;;12.25;10.75;;;;;32.52;27.36;100827.28;4867093;29;45461;-66
2022/07/19 09:38:24;;;;;;;;;10.75;10.75;;;;;32.56;26.09;100830.50;4866871;29;45329;-67
2022/07/19 09:40:52;;;;;;;;;11.25;9.75;;;;;32.59;27.09;100824.59;4881944;29;45469;-66
2022/07/19 09:43:19;;;;;;;;;11.50;10.00;;;;;32.67;26.67;100819.84;4890566;28;46329;-66
2022/07/19 09:45:45;;;;;;;;;9.75;9.50;;;;;32.77;26.39;100824.22;4884716;28;45561;-66
2022/07/19 09:48:10;;;;;;;;;11.25;9.75;;;;;32.86;26.30;100817.53;4866676;29;45276;-66
2022/07/19 09:50:36;;;;;;;;;10.25;10.00;;;;;32.96;25.45;100814.44;4866888;29;45383;-66
2022/07/19 09:53:04;;;;;;;;;10.25;10.00;;;;;33.04;26.13;100815.19;4866620;29;45563;-66
2022/07/19 09:55:30;;;;;;;;;10.25;9.50;;;;;33.06;25.44;100798.41;4866726;29;45387;-66
2022/07/19 09:57:57;;;;;;;;;10.75;10.75;;;;;33.16;26.14;100804.50;4871977;29;45332;-66
2022/07/19 10:00:24;;;;;;;;;10.25;9.25;;;;;33.22;26.12;100800.09;4875431;29;45321;-66
2022/07/19 10:02:52;;;;;;;;;12.75;11.50;;;;;33.29;25.29;100797.38;4866202;29;46330;-66
2022/07/19 10:05:18;;;;;;;;;12.25;11.50;;;;;33.38;25.31;100796.19;4866202;29;45237;-66
2022/07/19 10:07:44;;;;;;;;;9.25;9.25;;;;;33.43;25.37;100777.09;4866444;29;45320;-66
2022/07/19 10:10:12;;;;;;;;;11.25;11.25;;;;;33.55;24.68;100783.78;4866586;29;45237;-66
2022/07/19 10:12:39;;;;;;;;;13.25;11.00;;;;;33.68;24.46;100774.78;4879459;29;46174;-66
2022/07/19 10:15:07;;;;;;;;;10.00;8.50;;;;;33.74;24.82;100776.72;4875296;29;45312;-67
2022/07/19 10:17:37;;;;;;;;;10.00;8.50;;;;;33.84;24.50;100781.06;4867516;29;45228;-66
2022/07/19 10:20:05;;;;;;;;;7.25;7.25;;;;;33.86;24.26;100778.94;4865957;29;45594;-66
2022/07/19 10:22:31;;;;;;;;;10.00;8.75;;;;;33.96;24.20;100772.00;4866035;29;46341;-66
2022/07/19 10:25:18;;;;;;;;;11.25;9.50;;;;;34.02;23.67;100764.78;4866110;29;45816;-66
2022/07/19 10:27:50;;;;;;;;;7.50;7.50;;;;;34.12;23.29;100758.88;4869321;29;45462;-66
2022/07/19 10:30:20;;;;;;;;;12.00;10.75;;;;;34.15;23.15;100755.72;4884000;29;45469;-66
2022/07/19 10:32:47;;;;;;;;;9.00;8.50;;;;;34.18;22.83;100746.97;4889685;29;46224;-66
2022/07/19 10:35:31;;;;;;;;;12.25;9.50;;;;;34.28;22.86;100747.50;4867119;29;45529;-66
2022/07/19 10:38:02;;;;;;;;;8.25;8.00;;;;;34.33;22.68;100741.31;4865991;29;45324;-66
2022/07/19 10:40:56;;;;;;;;;9.25;9.00;;;;;34.41;22.17;100743.06;4875577;29;45281;-66
2022/07/19 10:43:23;;;;;;;;;11.50;10.00;;;;;34.48;21.69;100732.84;4889808;28;46635;-66
2022/07/19 10:45:59;;;;;;;;;8.00;7.00;;;;;34.57;21.58;100733.53;4894879;28;45339;-66
2022/07/19 10:48:45;;;;;;;;;8.25;8.25;;;;;34.67;21.75;100732.06;4874185;29;45888;-66
2022/07/19 10:51:26;;;;;;;;;12.50;8.75;;;;;34.69;21.59;100716.06;4891418;29;45276;-66
2022/07/19 10:54:00;;;;;;;;;7.25;7.25;;;;;34.76;21.27;100721.66;4893808;29;47395;-66
2022/07/19 10:56:27;;;;;;;;;9.25;9.25;;;;;34.84;21.20;100710.38;4868709;29;45359;-66
2022/07/19 10:58:59;;;;;;;;;8.75;8.50;;;;;34.92;21.00;100722.31;4881254;29;45239;-66
2022/07/19 11:01:28;;;;;;;;;7.50;7.50;;;;;35.01;20.21;100721.91;4867678;29;45271;-66
2022/07/19 11:04:14;;;;;;;;;10.50;9.25;;;;;35.10;19.70;100716.16;4870386;29;46060;-66
2022/07/19 11:06:39;;;;;;;;;11.00;8.50;;;;;35.19;20.33;100704.66;4865527;29;45327;-66
2022/07/19 11:09:04;;;;;;;;;8.75;8.75;;;;;35.31;19.77;100706.81;4865765;29;45513;-66
2022/07/19 11:11:30;;;;;;;;;8.75;7.50;;;;;35.40;19.70;100699.97;4872274;29;57807;-66
2022/07/19 11:14:00;;;;;;;;;9.25;9.25;;;;;35.44;19.99;100704.03;4883372;29;45503;-66
2022/07/19 11:16:26;;;;;;;;;8.25;8.25;;;;;35.45;20.26;100697.41;4865770;29;45349;-66
2022/07/19 11:19:05;;;;;;;;;8.25;8.25;;;;;35.47;19.67;100711.94;4868412;29;45578;-66